Terminal Aerodrome Forecast
Issued by NWS Charleston, WV

Current Version | Previous Version | Text Only | Print | Product List | Glossary Off
Versions: 1 2 3 4 5 6 7 8 9 10 11 12 13 14 15 16 17 18 19 20 21 22 23 24

000
FTUS41 KRLX 020500
TAFHTS
TAF
KHTS 020538Z 0206/0306 00000KT 1/2SM FG VV002
      TEMPO 0206/0208 2SM BR SCT001
     FM021200 00000KT 2SM BR BKN002
     FM021300 00000KT 5SM BR SCT250
     FM021400 VRB03KT P6SM SCT250
     FM021700 23004KT P6SM FEW050 BKN250
     FM022200 16004KT P6SM BKN250
     FM030500 16005KT P6SM BKN120=

USA.gov is the U.S. government's official web portal to all federal, state and local government web resources and services.